^^
Your Local Weather - Clay, NY Station Historical Data
Daily Summary for December 6, 2017 Units:  English    Metric   Both
« Previous Day
Next Day »
Daily Weekly Monthly Yearly Custom
  High: Low: Average:
Temperature: 39.5 °F 33.8 °F 36.8 °F
Dew Point: 30.5 °F 14.1 °F 21.7 °F
Humidity: 70% 38% 55%
Wind Speed: 7.0mph 0.0mph 4.1mph
Wind Gust: 13.0mph - -
Wind- - SW
Pressure: 29.90 in 29.79 in -
Precipitation: 0.00 in    
Historical Graphs
 
 
Tabular Data for December 6, 2017
Time Temperature Dew Point Pressure Wind Wind Speed Wind Gust Humidity Rainfall Rate (Hourly) solar
00:02 39.5 °F 30.5 °F 29.79 in WNW 5.0 mph 5.0 mph 70% 0.00 in 0 W/m2
00:08 39.2 °F 29.2 °F 29.79 in WNW 6.0 mph 7.0 mph 67% 0.00 in 0 W/m2
00:14 38.9 °F 28.5 °F 29.79 in West 6.0 mph 8.0 mph 66% 0.00 in 0 W/m2
00:20 38.8 °F 28.4 °F 29.79 in West 6.0 mph 6.0 mph 66% 0.00 in 0 W/m2
00:26 38.6 °F 28.2 °F 29.80 in West 6.0 mph 7.0 mph 66% 0.00 in 0 W/m2
00:32 38.4 °F 28.4 °F 29.80 in WSW 4.0 mph 7.0 mph 67% 0.00 in 0 W/m2
00:38 38.2 °F 28.2 °F 29.80 in West 3.0 mph 7.0 mph 67% 0.00 in 0 W/m2
00:44 38.0 °F 28.0 °F 29.80 in NW 4.0 mph 6.0 mph 67% 0.00 in 0 W/m2
00:50 38.1 °F 27.7 °F 29.81 in WNW 5.0 mph 5.0 mph 66% 0.00 in 0 W/m2
00:56 38.0 °F 27.3 °F 29.81 in WNW 6.0 mph 9.0 mph 65% 0.00 in 0 W/m2
01:02 37.9 °F 27.2 °F 29.81 in West 5.0 mph 5.0 mph 65% 0.00 in 0 W/m2
01:08 37.6 °F 27.3 °F 29.81 in WSW 4.0 mph 5.0 mph 66% 0.00 in 0 W/m2
01:14 37.2 °F 26.9 °F 29.81 in NW 5.0 mph 6.0 mph 66% 0.00 in 0 W/m2
01:20 37.0 °F 25.9 °F 29.81 in West 5.0 mph 8.0 mph 64% 0.00 in 0 W/m2
01:26 36.9 °F 25.1 °F 29.82 in WNW 5.0 mph 8.0 mph 62% 0.00 in 0 W/m2
01:32 36.6 °F 24.8 °F 29.82 in WNW 4.0 mph 9.0 mph 62% 0.00 in 0 W/m2
01:38 36.6 °F 24.4 °F 29.82 in WNW 5.0 mph 11.0 mph 61% 0.00 in 0 W/m2
01:50 36.4 °F 24.2 °F 29.83 in West 4.0 mph 4.0 mph 61% 0.00 in 0 W/m2
01:56 36.4 °F 24.2 °F 29.83 in SSW 3.0 mph 7.0 mph 61% 0.00 in 0 W/m2
02:02 36.3 °F 24.1 °F 29.84 in NW 3.0 mph 5.0 mph 61% 0.00 in 0 W/m2
02:08 36.4 °F 24.6 °F 29.84 in West 2.0 mph 6.0 mph 62% 0.00 in 0 W/m2
02:14 36.4 °F 24.6 °F 29.84 in West 2.0 mph 3.0 mph 62% 0.00 in 0 W/m2
02:20 36.4 °F 24.6 °F 29.85 in West 1.0 mph 1.0 mph 62% 0.00 in 0 W/m2
02:32 36.2 °F 24.8 °F 29.85 in Calm     63% 0.00 in 0 W/m2
02:38 36.1 °F 25.1 °F 29.85 in Calm   1.0 mph 64% 0.00 in 0 W/m2
02:44 36.2 °F 25.6 °F 29.85 in Calm     65% 0.00 in 0 W/m2
02:50 36.1 °F 25.8 °F 29.85 in Calm   1.0 mph 66% 0.00 in 0 W/m2
02:56 36.0 °F 25.7 °F 29.85 in Calm   2.0 mph 66% 0.00 in 0 W/m2
03:02 35.9 °F 25.6 °F 29.84 in Calm     66% 0.00 in 0 W/m2
03:08 35.9 °F 25.6 °F 29.84 in Calm     66% 0.00 in 0 W/m2
03:14 35.8 °F 25.5 °F 29.84 in Calm     66% 0.00 in 0 W/m2
03:20 35.8 °F 25.5 °F 29.84 in West 1.0 mph 2.0 mph 66% 0.00 in 0 W/m2
03:26 35.8 °F 25.9 °F 29.84 in West 1.0 mph 2.0 mph 67% 0.00 in 0 W/m2
03:32 35.8 °F 25.9 °F 29.84 in West 1.0 mph 2.0 mph 67% 0.00 in 0 W/m2
03:38 35.8 °F 25.9 °F 29.84 in WNW 1.0 mph 3.0 mph 67% 0.00 in 0 W/m2
03:44 35.8 °F 25.2 °F 29.85 in West 1.0 mph 2.0 mph 65% 0.00 in 0 W/m2
03:50 35.9 °F 25.3 °F 29.85 in WSW 1.0 mph 1.0 mph 65% 0.00 in 0 W/m2
03:56 35.9 °F 26.0 °F 29.85 in Calm   1.0 mph 67% 0.00 in 0 W/m2
04:02 35.7 °F 25.8 °F 29.85 in Calm     67% 0.00 in 0 W/m2
04:08 35.6 °F 25.4 °F 29.85 in Calm   1.0 mph 66% 0.00 in 0 W/m2
04:14 35.7 °F 24.7 °F 29.85 in SW 1.0 mph 4.0 mph 64% 0.00 in 0 W/m2
04:20 36.0 °F 23.4 °F 29.85 in West 3.0 mph 7.0 mph 60% 0.00 in 0 W/m2
04:26 36.2 °F 23.2 °F 29.85 in SW 4.0 mph 7.0 mph 59% 0.00 in 0 W/m2
04:32 36.2 °F 23.2 °F 29.85 in South 4.0 mph 4.0 mph 59% 0.00 in 0 W/m2
04:38 36.1 °F 22.7 °F 29.85 in SW 4.0 mph 8.0 mph 58% 0.00 in 0 W/m2
04:44 36.0 °F 22.2 °F 29.85 in West 4.0 mph 5.0 mph 57% 0.00 in 0 W/m2
04:50 35.9 °F 22.5 °F 29.85 in West 3.0 mph 4.0 mph 58% 0.00 in 0 W/m2
04:56 35.8 °F 22.0 °F 29.85 in WSW 3.0 mph 9.0 mph 57% 0.00 in 0 W/m2
05:02 35.7 °F 21.9 °F 29.85 in SW 4.0 mph 5.0 mph 57% 0.00 in 0 W/m2
05:08 35.6 °F 21.4 °F 29.86 in SW 4.0 mph 5.0 mph 56% 0.00 in 0 W/m2
05:14 35.6 °F 21.9 °F 29.86 in SW 4.0 mph 4.0 mph 57% 0.00 in 0 W/m2
05:20 35.4 °F 21.7 °F 29.87 in SSW 4.0 mph 4.0 mph 57% 0.00 in 0 W/m2
05:26 35.3 °F 21.6 °F 29.87 in SW 4.0 mph 4.0 mph 57% 0.00 in 0 W/m2
05:32 35.2 °F 21.5 °F 29.87 in SSW 4.0 mph 5.0 mph 57% 0.00 in 0 W/m2
05:38 35.1 °F 21.0 °F 29.87 in SW 4.0 mph 5.0 mph 56% 0.00 in 0 W/m2
05:44 35.0 °F 20.4 °F 29.87 in WSW 6.0 mph 6.0 mph 55% 0.00 in 0 W/m2
05:50 34.9 °F 20.8 °F 29.87 in WSW 6.0 mph 7.0 mph 56% 0.00 in 0 W/m2
05:56 34.8 °F 20.3 °F 29.87 in West 5.0 mph 7.0 mph 55% 0.00 in 0 W/m2
06:02 34.8 °F 20.3 °F 29.87 in SSW 5.0 mph 5.0 mph 55% 0.00 in 0 W/m2
06:08 34.7 °F 20.2 °F 29.87 in West 4.0 mph 7.0 mph 55% 0.00 in 0 W/m2
06:14 34.7 °F 20.2 °F 29.87 in SW 4.0 mph 7.0 mph 55% 0.00 in 0 W/m2
06:20 34.7 °F 20.2 °F 29.88 in SW 4.0 mph 12.0 mph 55% 0.00 in 0 W/m2
06:26 34.7 °F 20.2 °F 29.88 in SW 5.0 mph 12.0 mph 55% 0.00 in 0 W/m2
06:32 34.7 °F 20.2 °F 29.87 in WSW 5.0 mph 7.0 mph 55% 0.00 in 0 W/m2
06:38 34.7 °F 20.2 °F 29.87 in WSW 5.0 mph 7.0 mph 55% 0.00 in 0 W/m2
06:42 34.7 °F 20.2 °F 29.87 in WSW 5.0 mph 5.0 mph 55% 0.00 in 0 W/m2
06:48 34.8 °F 20.3 °F 29.87 in SW 6.0 mph 9.0 mph 55% 0.00 in 0 W/m2
06:54 34.8 °F 20.3 °F 29.87 in WSW 6.0 mph 6.0 mph 55% 0.00 in 0 W/m2
07:00 34.8 °F 20.3 °F 29.87 in SW 6.0 mph 9.0 mph 55% 0.00 in 0 W/m2
07:06 34.8 °F 20.3 °F 29.87 in WSW 5.0 mph 9.0 mph 55% 0.00 in 0 W/m2
07:12 34.6 °F 20.1 °F 29.87 in WSW 4.0 mph 5.0 mph 55% 0.00 in 0 W/m2
07:18 34.5 °F 20.0 °F 29.87 in WSW 5.0 mph 5.0 mph 55% 0.00 in 0 W/m2
07:24 34.6 °F 20.1 °F 29.88 in SSW 5.0 mph 7.0 mph 55% 0.00 in 0 W/m2
07:30 34.5 °F 20.0 °F 29.88 in SSW 5.0 mph 12.0 mph 55% 0.00 in 0 W/m2
07:36 34.4 °F 19.5 °F 29.88 in SW 6.0 mph 12.0 mph 54% 0.00 in 0 W/m2
07:42 34.3 °F 19.4 °F 29.89 in SW 6.0 mph 9.0 mph 54% 0.00 in 5 W/m2
07:48 34.1 °F 19.2 °F 29.89 in SSW 6.0 mph 9.0 mph 54% 0.00 in 9 W/m2
07:54 34.0 °F 19.5 °F 29.89 in SW 5.0 mph 10.0 mph 55% 0.00 in 19 W/m2
08:00 33.8 °F 18.9 °F 29.89 in SW 5.0 mph 5.0 mph 54% 0.00 in 44 W/m2
08:06 33.9 °F 18.6 °F 29.89 in SW 6.0 mph 12.0 mph 53% 0.00 in 32 W/m2
08:12 34.0 °F 19.1 °F 29.89 in WSW 7.0 mph 7.0 mph 54% 0.00 in 40 W/m2
08:18 33.9 °F 19.0 °F 29.89 in WSW 5.0 mph 7.0 mph 54% 0.00 in 116 W/m2
08:24 34.1 °F 19.2 °F 29.89 in West 4.0 mph 8.0 mph 54% 0.00 in 141 W/m2
08:30 34.3 °F 19.4 °F 29.89 in SW 5.0 mph 5.0 mph 54% 0.00 in 155 W/m2
08:36 34.5 °F 19.1 °F 29.89 in WSW 6.0 mph 11.0 mph 53% 0.00 in 171 W/m2
08:42 34.6 °F 19.6 °F 29.89 in West 6.0 mph 6.0 mph 54% 0.00 in 186 W/m2
08:48 34.7 °F 19.3 °F 29.89 in WSW 5.0 mph 7.0 mph 53% 0.00 in 197 W/m2
08:54 34.7 °F 19.3 °F 29.89 in South 6.0 mph 7.0 mph 53% 0.00 in 209 W/m2
09:00 34.8 °F 18.9 °F 29.89 in SW 6.0 mph 6.0 mph 52% 0.00 in 223 W/m2
09:06 35.0 °F 19.1 °F 29.89 in SW 6.0 mph 6.0 mph 52% 0.00 in 239 W/m2
09:12 35.2 °F 18.9 °F 29.89 in SSW 5.0 mph 9.0 mph 51% 0.00 in 251 W/m2
09:18 35.0 °F 18.7 °F 29.89 in WSW 7.0 mph 10.0 mph 51% 0.00 in 267 W/m2
09:24 35.2 °F 18.4 °F 29.89 in SSW 6.0 mph 10.0 mph 50% 0.00 in 202 W/m2
09:30 35.4 °F 19.0 °F 29.89 in SW 5.0 mph 5.0 mph 51% 0.00 in 278 W/m2
09:36 35.6 °F 19.2 °F 29.89 in SW 4.0 mph 7.0 mph 51% 0.00 in 311 W/m2
09:42 35.2 °F 18.4 °F 29.89 in West 6.0 mph 10.0 mph 50% 0.00 in 176 W/m2
09:48 35.6 °F 20.1 °F 29.89 in WSW 6.0 mph 10.0 mph 53% 0.00 in 352 W/m2
09:54 36.3 °F 19.4 °F 29.89 in SW 4.0 mph 6.0 mph 50% 0.00 in 345 W/m2
10:00 36.1 °F 18.8 °F 29.89 in SW 5.0 mph 8.0 mph 49% 0.00 in 341 W/m2
10:06 36.0 °F 18.7 °F 29.90 in SW 6.0 mph 8.0 mph 49% 0.00 in 360 W/m2
10:12 36.0 °F 18.7 °F 29.90 in West 6.0 mph 8.0 mph 49% 0.00 in 366 W/m2
10:18 35.8 °F 18.5 °F 29.90 in SSW 6.0 mph 8.0 mph 49% 0.00 in 127 W/m2
10:24 36.1 °F 19.2 °F 29.89 in SSW 6.0 mph 9.0 mph 50% 0.00 in 408 W/m2
10:30 36.8 °F 19.9 °F 29.89 in SW 6.0 mph 13.0 mph 50% 0.00 in 394 W/m2
10:36 36.9 °F 19.5 °F 29.89 in SSW 6.0 mph 13.0 mph 49% 0.00 in 399 W/m2
10:42 36.8 °F 18.4 °F 29.89 in SW 6.0 mph 6.0 mph 47% 0.00 in 399 W/m2
10:48 36.4 °F 18.1 °F 29.89 in WSW 7.0 mph 9.0 mph 47% 0.00 in 406 W/m2
10:54 37.0 °F 18.6 °F 29.89 in SSW 7.0 mph 10.0 mph 47% 0.00 in 410 W/m2
11:00 36.7 °F 17.8 °F 29.88 in South 7.0 mph 12.0 mph 46% 0.00 in 431 W/m2
11:06 37.0 °F 18.6 °F 29.88 in WSW 6.0 mph 12.0 mph 47% 0.00 in 431 W/m2
11:12 37.2 °F 18.8 °F 29.88 in SW 6.0 mph 6.0 mph 47% 0.00 in 432 W/m2
11:18 37.4 °F 18.0 °F 29.87 in SSW 7.0 mph 7.0 mph 45% 0.00 in 455 W/m2
11:24 37.2 °F 17.8 °F 29.87 in West 7.0 mph 7.0 mph 45% 0.00 in 512 W/m2
11:30 37.9 °F 17.4 °F 29.87 in WSW 5.0 mph 5.0 mph 43% 0.00 in 533 W/m2
11:36 37.3 °F 17.4 °F 29.87 in SW 5.0 mph 11.0 mph 44% 0.00 in 193 W/m2
11:42 36.8 °F 17.9 °F 29.87 in SW 6.0 mph 9.0 mph 46% 0.00 in 559 W/m2
11:48 36.6 °F 16.7 °F 29.87 in WNW 7.0 mph 9.0 mph 44% 0.00 in 274 W/m2
11:54 36.8 °F 17.9 °F 29.87 in SW 7.0 mph 8.0 mph 46% 0.00 in 605 W/m2
12:00 37.3 °F 17.9 °F 29.87 in SW 6.0 mph 6.0 mph 45% 0.00 in 587 W/m2
12:06 37.2 °F 16.2 °F 29.87 in West 6.0 mph 6.0 mph 42% 0.00 in 264 W/m2
12:12 37.3 °F 17.4 °F 29.87 in WSW 7.0 mph 10.0 mph 44% 0.00 in 211 W/m2
12:18 37.2 °F 16.2 °F 29.86 in SW 7.0 mph 10.0 mph 42% 0.00 in 162 W/m2
12:24 38.3 °F 17.2 °F 29.86 in WSW 6.0 mph 9.0 mph 42% 0.00 in 508 W/m2
12:30 37.7 °F 16.1 °F 29.86 in SW 6.0 mph 6.0 mph 41% 0.00 in 167 W/m2
12:36 37.6 °F 16.0 °F 29.86 in WSW 6.0 mph 8.0 mph 41% 0.00 in 193 W/m2
12:42 37.3 °F 15.7 °F 29.86 in WSW 6.0 mph 8.0 mph 41% 0.00 in 160 W/m2
12:48 38.4 °F 16.1 °F 29.85 in SW 5.0 mph 8.0 mph 40% 0.00 in 571 W/m2
12:54 38.6 °F 16.3 °F 29.84 in SSW 5.0 mph 8.0 mph 40% 0.00 in 176 W/m2
13:00 38.0 °F 15.2 °F 29.84 in WSW 6.0 mph 6.0 mph 39% 0.00 in 116 W/m2
13:06 37.4 °F 14.1 °F 29.84 in WSW 7.0 mph 7.0 mph 38% 0.00 in 76 W/m2
13:12 37.1 °F 15.0 °F 29.84 in SSW 6.0 mph 6.0 mph 40% 0.00 in 58 W/m2
13:18 37.0 °F 14.9 °F 29.84 in SSW 5.0 mph 7.0 mph 40% 0.00 in 67 W/m2
13:24 37.0 °F 14.9 °F 29.84 in South 5.0 mph 5.0 mph 40% 0.00 in 83 W/m2
13:30 37.1 °F 15.5 °F 29.84 in SSW 4.0 mph 7.0 mph 41% 0.00 in 56 W/m2
13:36 37.1 °F 15.5 °F 29.84 in South 4.0 mph 7.0 mph 41% 0.00 in 44 W/m2
13:42 36.9 °F 14.8 °F 29.84 in SSW 4.0 mph 5.0 mph 40% 0.00 in 42 W/m2
13:48 36.9 °F 15.4 °F 29.84 in SW 5.0 mph 5.0 mph 41% 0.00 in 35 W/m2
13:54 36.9 °F 15.4 °F 29.84 in SW 5.0 mph 5.0 mph 41% 0.00 in 32 W/m2
14:00 36.9 °F 15.9 °F 29.84 in SSW 5.0 mph 5.0 mph 42% 0.00 in 35 W/m2
14:06 36.9 °F 15.9 °F 29.84 in SW 4.0 mph 10.0 mph 42% 0.00 in 37 W/m2
14:12 37.0 °F 15.5 °F 29.84 in SSW 5.0 mph 5.0 mph 41% 0.00 in 35 W/m2
14:18 37.1 °F 16.1 °F 29.84 in SW 4.0 mph 7.0 mph 42% 0.00 in 28 W/m2
14:24 37.1 °F 16.1 °F 29.84 in SW 4.0 mph 8.0 mph 42% 0.00 in 32 W/m2
14:30 37.2 °F 16.7 °F 29.84 in SW 4.0 mph 4.0 mph 43% 0.00 in 32 W/m2
14:36 37.3 °F 17.4 °F 29.84 in South 4.0 mph 6.0 mph 44% 0.00 in 33 W/m2
14:42 37.5 °F 18.1 °F 29.84 in SSE 6.0 mph 6.0 mph 45% 0.00 in 40 W/m2
14:48 37.7 °F 19.3 °F 29.84 in SW 5.0 mph 6.0 mph 47% 0.00 in 47 W/m2
14:54 37.7 °F 18.2 °F 29.84 in SSW 4.0 mph 7.0 mph 45% 0.00 in 28 W/m2
15:00 37.8 °F 19.3 °F 29.84 in SW 5.0 mph 5.0 mph 47% 0.00 in 35 W/m2
15:06 37.8 °F 19.3 °F 29.84 in SSW 3.0 mph 9.0 mph 47% 0.00 in 26 W/m2
15:12 37.9 °F 19.4 °F 29.84 in SW 4.0 mph 8.0 mph 47% 0.00 in 18 W/m2
15:18 37.9 °F 19.4 °F 29.84 in SW 4.0 mph 8.0 mph 47% 0.00 in 12 W/m2
15:24 37.9 °F 19.4 °F 29.84 in WSW 4.0 mph 8.0 mph 47% 0.00 in 11 W/m2
15:30 37.9 °F 19.9 °F 29.85 in SW 6.0 mph 6.0 mph 48% 0.00 in 11 W/m2
15:36 37.9 °F 19.9 °F 29.85 in SSW 4.0 mph 7.0 mph 48% 0.00 in 9 W/m2
15:42 37.8 °F 20.3 °F 29.85 in SW 4.0 mph 8.0 mph 49% 0.00 in 7 W/m2
15:48 37.9 °F 20.4 °F 29.84 in SW 4.0 mph 8.0 mph 49% 0.00 in 7 W/m2
15:54 37.9 °F 20.9 °F 29.84 in SSW 4.0 mph 4.0 mph 50% 0.00 in 7 W/m2
16:00 37.8 °F 20.8 °F 29.84 in SW 3.0 mph 3.0 mph 50% 0.00 in 5 W/m2
16:06 37.9 °F 20.9 °F 29.84 in SW 4.0 mph 4.0 mph 50% 0.00 in 5 W/m2
16:12 37.9 °F 20.9 °F 29.84 in West 4.0 mph 4.0 mph 50% 0.00 in 5 W/m2
16:18 38.0 °F 21.5 °F 29.84 in South 4.0 mph 5.0 mph 51% 0.00 in 0 W/m2
16:24 38.0 °F 21.5 °F 29.84 in SSE 4.0 mph 5.0 mph 51% 0.00 in 0 W/m2
16:30 38.0 °F 21.5 °F 29.84 in SW 4.0 mph 7.0 mph 51% 0.00 in 0 W/m2
16:36 38.1 °F 21.5 °F 29.84 in SSW 3.0 mph 7.0 mph 51% 0.00 in 0 W/m2
16:42 38.1 °F 21.5 °F 29.84 in SW 4.0 mph 5.0 mph 51% 0.00 in 0 W/m2
16:48 38.2 °F 21.6 °F 29.83 in SSW 5.0 mph 6.0 mph 51% 0.00 in 0 W/m2
16:54 38.1 °F 21.5 °F 29.83 in SSW 3.0 mph 7.0 mph 51% 0.00 in 0 W/m2
17:00 38.1 °F 22.0 °F 29.83 in SW 2.0 mph 2.0 mph 52% 0.00 in 0 W/m2
17:06 38.1 °F 22.0 °F 29.83 in SSW 2.0 mph 3.0 mph 52% 0.00 in 0 W/m2
17:12 38.1 °F 22.0 °F 29.83 in SSE 3.0 mph 6.0 mph 52% 0.00 in 0 W/m2
17:16 38.1 °F 22.0 °F 29.83 in SSW 3.0 mph 6.0 mph 52% 0.00 in 0 W/m2
17:22 38.1 °F 22.5 °F 29.83 in WSW 3.0 mph 3.0 mph 53% 0.00 in 0 W/m2
17:28 38.0 °F 22.4 °F 29.83 in SW 2.0 mph 6.0 mph 53% 0.00 in 0 W/m2
17:34 38.0 °F 22.4 °F 29.82 in SSW 2.0 mph 4.0 mph 53% 0.00 in 0 W/m2
17:40 37.9 °F 22.3 °F 29.83 in SSW 2.0 mph 4.0 mph 53% 0.00 in 0 W/m2
17:46 38.0 °F 22.8 °F 29.83 in SW 3.0 mph 5.0 mph 54% 0.00 in 0 W/m2
17:52 37.9 °F 22.7 °F 29.83 in SW 3.0 mph 3.0 mph 54% 0.00 in 0 W/m2
17:58 38.0 °F 23.3 °F 29.83 in WSW 3.0 mph 5.0 mph 55% 0.00 in 0 W/m2
18:04 38.0 °F 22.8 °F 29.83 in SSW 2.0 mph 4.0 mph 54% 0.00 in 0 W/m2
18:10 38.0 °F 23.3 °F 29.83 in SW 3.0 mph 5.0 mph 55% 0.00 in 0 W/m2
18:16 38.0 °F 23.3 °F 29.83 in SW 3.0 mph 6.0 mph 55% 0.00 in 0 W/m2
18:22 38.0 °F 23.3 °F 29.83 in SW 4.0 mph 6.0 mph 55% 0.00 in 0 W/m2
18:28 38.0 °F 23.3 °F 29.83 in SSW 3.0 mph 6.0 mph 55% 0.00 in 0 W/m2
18:34 38.0 °F 23.3 °F 29.83 in SSW 4.0 mph 6.0 mph 55% 0.00 in 0 W/m2
18:40 37.9 °F 23.6 °F 29.83 in WSW 4.0 mph 4.0 mph 56% 0.00 in 0 W/m2
18:46 38.0 °F 23.7 °F 29.83 in WSW 4.0 mph 8.0 mph 56% 0.00 in 0 W/m2
18:52 38.1 °F 23.3 °F 29.83 in WNW 4.0 mph 4.0 mph 55% 0.00 in 0 W/m2
18:58 38.2 °F 23.4 °F 29.83 in SW 5.0 mph 6.0 mph 55% 0.00 in 0 W/m2
19:04 38.2 °F 23.4 °F 29.83 in South 5.0 mph 5.0 mph 55% 0.00 in 0 W/m2
19:10 38.2 °F 23.4 °F 29.83 in SW 5.0 mph 5.0 mph 55% 0.00 in 0 W/m2
19:16 38.2 °F 23.4 °F 29.83 in WSW 4.0 mph 5.0 mph 55% 0.00 in 0 W/m2
19:22 38.1 °F 23.3 °F 29.83 in SW 4.0 mph 4.0 mph 55% 0.00 in 0 W/m2
19:28 38.2 °F 23.4 °F 29.83 in SW 4.0 mph 6.0 mph 55% 0.00 in 0 W/m2
19:34 38.2 °F 23.4 °F 29.83 in SW 3.0 mph 3.0 mph 55% 0.00 in 0 W/m2
19:40 38.1 °F 23.8 °F 29.82 in SW 3.0 mph 3.0 mph 56% 0.00 in 0 W/m2
19:46 38.0 °F 23.7 °F 29.82 in SW 3.0 mph 5.0 mph 56% 0.00 in 0 W/m2
19:52 38.0 °F 23.7 °F 29.83 in SW 3.0 mph 3.0 mph 56% 0.00 in 0 W/m2
19:58 38.0 °F 23.7 °F 29.83 in South 3.0 mph 3.0 mph 56% 0.00 in 0 W/m2
20:04 38.0 °F 24.1 °F 29.83 in SW 2.0 mph 3.0 mph 57% 0.00 in 0 W/m2
20:10 38.0 °F 23.7 °F 29.83 in SSW 2.0 mph 4.0 mph 56% 0.00 in 0 W/m2
20:16 38.0 °F 24.1 °F 29.83 in West 2.0 mph 6.0 mph 57% 0.00 in 0 W/m2
20:22 37.9 °F 24.0 °F 29.83 in SSW 2.0 mph 3.0 mph 57% 0.00 in 0 W/m2
20:28 37.9 °F 24.0 °F 29.83 in SW 3.0 mph 3.0 mph 57% 0.00 in 0 W/m2
20:34 37.9 °F 24.0 °F 29.83 in South 2.0 mph 4.0 mph 57% 0.00 in 0 W/m2
20:40 37.9 °F 24.0 °F 29.83 in SW 2.0 mph 3.0 mph 57% 0.00 in 0 W/m2
20:46 37.9 °F 24.0 °F 29.83 in SW 2.0 mph 5.0 mph 57% 0.00 in 0 W/m2
20:52 37.9 °F 24.0 °F 29.83 in SW 3.0 mph 6.0 mph 57% 0.00 in 0 W/m2
20:58 38.0 °F 24.1 °F 29.83 in SW 4.0 mph 6.0 mph 57% 0.00 in 0 W/m2
21:04 38.0 °F 24.1 °F 29.83 in SW 3.0 mph 5.0 mph 57% 0.00 in 0 W/m2
21:10 38.0 °F 24.1 °F 29.83 in West 2.0 mph 3.0 mph 57% 0.00 in 0 W/m2
21:16 37.9 °F 24.0 °F 29.83 in WSW 2.0 mph 4.0 mph 57% 0.00 in 0 W/m2
21:22 37.9 °F 24.0 °F 29.83 in WSW 3.0 mph 6.0 mph 57% 0.00 in 0 W/m2
21:28 38.0 °F 24.1 °F 29.83 in SW 3.0 mph 6.0 mph 57% 0.00 in 0 W/m2
21:34 38.0 °F 24.1 °F 29.83 in WSW 3.0 mph 5.0 mph 57% 0.00 in 0 W/m2
21:42 37.9 °F 24.0 °F 29.83 in WSW 3.0 mph 3.0 mph 57% 0.00 in 0 W/m2
21:48 37.9 °F 24.4 °F 29.84 in WNW 3.0 mph 4.0 mph 58% 0.00 in 0 W/m2
21:54 37.9 °F 24.4 °F 29.84 in WNW 2.0 mph 4.0 mph 58% 0.00 in 0 W/m2
22:00 37.8 °F 24.7 °F 29.85 in SW 3.0 mph 7.0 mph 59% 0.00 in 0 W/m2
22:06 37.6 °F 25.4 °F 29.85 in NW 4.0 mph 7.0 mph 61% 0.00 in 0 W/m2
22:16 37.2 °F 25.8 °F 29.85 in West 3.0 mph 7.0 mph 63% 0.00 in 0 W/m2
22:22 36.9 °F 26.2 °F 29.85 in West 4.0 mph 5.0 mph 65% 0.00 in 0 W/m2
22:28 36.6 °F 25.9 °F 29.85 in SW 3.0 mph 5.0 mph 65% 0.00 in 0 W/m2
22:34 36.5 °F 26.2 °F 29.85 in SW 3.0 mph 4.0 mph 66% 0.00 in 0 W/m2
22:40 36.4 °F 26.5 °F 29.85 in West 4.0 mph 4.0 mph 67% 0.00 in 0 W/m2
22:46 36.4 °F 26.8 °F 29.85 in WSW 3.0 mph 9.0 mph 68% 0.00 in 0 W/m2
22:52 36.4 °F 26.5 °F 29.85 in SW 3.0 mph 5.0 mph 67% 0.00 in 0 W/m2
22:58 36.4 °F 26.5 °F 29.85 in WNW 3.0 mph 5.0 mph 67% 0.00 in 0 W/m2
23:04 36.4 °F 26.1 °F 29.85 in SW 3.0 mph 5.0 mph 66% 0.00 in 0 W/m2
23:10 36.5 °F 26.2 °F 29.85 in West 4.0 mph 6.0 mph 66% 0.00 in 0 W/m2
23:16 36.5 °F 25.8 °F 29.85 in West 5.0 mph 6.0 mph 65% 0.00 in 0 W/m2
23:22 36.4 °F 25.4 °F 29.85 in WSW 3.0 mph 4.0 mph 64% 0.00 in 0 W/m2
23:28 36.4 °F 25.0 °F 29.85 in WSW 4.0 mph 10.0 mph 63% 0.00 in 0 W/m2
23:34 36.4 °F 25.0 °F 29.85 in WSW 4.0 mph 7.0 mph 63% 0.00 in 0 W/m2
23:40 36.4 °F 25.0 °F 29.85 in West 4.0 mph 4.0 mph 63% 0.00 in 0 W/m2
23:46 36.3 °F 24.5 °F 29.85 in WSW 3.0 mph 7.0 mph 62% 0.00 in 0 W/m2
23:52 36.3 °F 24.5 °F 29.85 in West 4.0 mph 4.0 mph 62% 0.00 in 0 W/m2
23:58 36.3 °F 24.1 °F 29.85 in WNW 4.0 mph 6.0 mph 61% 0.00 in 0 W/m2
Country Meadow, Clay, NY, USA
Compliments of Weather Underground - 2 mb